• Join FlightAware (Why Join?)
  • Login
  • US Flag 
11:58AM EST


 

Airport Tracker/Info


-or-


 

Live Flight TrackerFlight Track Log ✈ CSJ405 ✈ 09-May-2013 ✈ CYHM - CYMX

Flight Track Log - Related Links

Times and Time Zones

All times are in EDT time to prevent confusion due to time zone crossing. See the CSJ405 flight status page for this flight to view local times or setup timezone preferences in your user account.

Time Position Orientation Groundspeed Altitude Reporting Facility
EDT Latitude Longitude Course Direction KTS MPH feet Rate Location/Type
01:53AM 43.1667 -79.9000 95° East 30 35 800  Level Toronto Center
01:56AM 43.1667 -79.8833 90° East 90 104 1,200 240 Climbing Toronto Center
01:57AM 43.1500 -79.8667 144° Southeast 100 115 1,900 660 Climbing Toronto Center
01:58AM 43.1500 -79.8167 90° East 110 127 2,600 660 Climbing Toronto Center
01:59AM 43.1333 -79.7667 115° Southeast 110 127 3,300 660 Climbing Toronto Center
02:00AM 43.1500 -79.7500 36° Northeast 120 138 4,000 660 Climbing Toronto Center
02:01AM 43.1495 -79.5079 95° East  Level FlightAware Approximate
02:01AM 43.1667 -79.7000 65° Northeast 120 138 4,700  Level Toronto Center
02:02AM 43.2000 -79.6500 48° Northeast 130 150 5,300 600 Climbing Toronto Center
02:03AM 43.2167 -79.6333 36° Northeast 130 150 6,000 600 Climbing Toronto Center
02:04AM 43.2500 -79.5833 48° Northeast 120 138 6,600 480 Climbing Toronto Center
02:05AM 43.2667 -79.5667 36° Northeast 130 150 7,000 180 Climbing Toronto Center
02:06AM 43.3000 -79.5167 47° Northeast 150 173 7,000  Level Toronto Center
02:07AM 43.3167 -79.4667 65° Northeast 160 184 7,000  Level Toronto Center
02:08AM 43.3500 -79.4333 36° Northeast 160 184 7,000  Level Toronto Center
02:09AM 43.3667 -79.3500 75° East 160 184 7,000  Level Toronto Center
02:10AM 43.4000 -79.3167 36° Northeast 160 184 7,000  Level Toronto Center
02:11AM 43.4167 -79.2667 65° Northeast 170 196 7,000  Level Toronto Center
02:12AM 43.4500 -79.2000 55° Northeast 160 184 7,000  Level Toronto Center
02:13AM 43.4667 -79.1500 65° Northeast 160 184 7,000  Level Toronto Center
02:14AM 43.5000 -79.1000 47° Northeast 160 184 7,000  Level Toronto Center
02:15AM 43.5167 -79.0333 71° East 160 184 7,000  Level Toronto Center
02:16AM 43.5500 -78.9833 47° Northeast 160 184 7,000  Level Toronto Center
02:17AM 43.5667 -78.9500 55° Northeast 160 184 7,000  Level Toronto Center
02:18AM 43.5833 -78.9000 65° Northeast 160 184 7,000  Level Toronto Center
02:19AM 43.6167 -78.8333 55° Northeast 160 184 7,000  Level Toronto Center
02:20AM 43.6333 -78.7833 65° Northeast 170 196 7,000  Level Toronto Center
02:21AM 43.6667 -78.7333 47° Northeast 170 196 7,000  Level Toronto Center
02:22AM 43.7000 -78.6667 55° Northeast 170 196 7,000  Level Toronto Center
02:23AM 43.7167 -78.6167 65° Northeast 170 196 7,000  Level Toronto Center
02:24AM 43.7500 -78.5667 47° Northeast 160 184 7,000  Level Toronto Center
02:25AM 43.7667 -78.5000 71° East 160 184 7,000  Level Toronto Center
02:26AM 43.7667 -78.4500 90° East 160 184 7,000  Level Toronto Center
02:27AM 43.8000 -78.4167 36° Northeast 170 196 7,000  Level Toronto Center
02:28AM 43.8167 -78.3667 65° Northeast 160 184 7,000  Level Toronto Center
02:29AM 43.8500 -78.3000 55° Northeast 160 184 7,000  Level Toronto Center
02:30AM 43.8667 -78.2500 65° Northeast 160 184 7,000  Level Toronto Center
02:31AM 43.9000 -78.2000 47° Northeast 160 184 7,000  Level Toronto Center
02:32AM 43.9167 -78.1500 65° Northeast 160 184 7,000  Level Toronto Center
02:33AM 43.9500 -78.1000 47° Northeast 160 184 7,000  Level Toronto Center
02:34AM 43.9667 -78.0333 71° East 160 184 7,000  Level Toronto Center
02:35AM 44.0000 -77.9833 47° Northeast 160 184 7,000  Level Toronto Center
02:36AM 44.0167 -77.9333 65° Northeast 160 184 7,000  Level Toronto Center
02:37AM 44.0500 -77.9000 36° Northeast 160 184 7,000  Level Toronto Center
02:38AM 44.0667 -77.8167 74° East 160 184 7,000  Level Toronto Center
02:39AM 44.0833 -77.7833 55° Northeast 160 184 7,000  Level Toronto Center
02:40AM 44.1167 -77.7333 47° Northeast 160 184 7,000  Level Toronto Center
02:41AM 44.1333 -77.6833 65° Northeast 160 184 7,000  Level Toronto Center
02:42AM 44.1667 -77.6333 47° Northeast 160 184 7,000  Level Toronto Center
02:44AM 44.2167 -77.5333 55° Northeast 160 184 7,000  Level Montreal Center
02:45AM 44.2333 -77.4667 71° East 160 184 7,000  Level Toronto Center
02:46AM 44.2500 -77.4167 65° Northeast 160 184 7,000  Level Toronto Center
02:47AM 44.2500 -77.3667 90° East 160 184 7,000  Level Toronto Center
02:48AM 44.2833 -77.3000 55° Northeast 160 184 7,000  Level Toronto Center
02:49AM 44.3000 -77.2500 65° Northeast 160 184 7,000  Level Toronto Center
02:50AM 44.3333 -77.2000 47° Northeast 160 184 7,000  Level Toronto Center
02:51AM 44.3500 -77.1667 55° Northeast 160 184 7,000  Level Toronto Center
02:52AM 44.3833 -77.0833 61° Northeast 160 184 7,000  Level Toronto Center
02:53AM 44.4167 -77.0333 47° Northeast 170 196 7,000  Level Toronto Center
02:54AM 44.4333 -77.0000 55° Northeast 160 184 7,000  Level Toronto Center
02:55AM 44.4667 -76.9500 47° Northeast 160 184 7,000  Level Toronto Center
02:56AM 44.4833 -76.9000 65° Northeast 160 184 7,000  Level Toronto Center
02:57AM 44.5167 -76.8333 55° Northeast 160 184 7,000  Level Toronto Center
02:58AM 44.5333 -76.7833 65° Northeast 160 184 7,000  Level Toronto Center
02:59AM 44.5500 -76.7333 65° Northeast 160 184 7,000  Level Toronto Center
03:00AM 44.5833 -76.6833 47° Northeast 160 184 7,000  Level Toronto Center
03:01AM 44.5833 -76.6167 90° East 160 184 7,000  Level Toronto Center
03:02AM 44.6167 -76.5667 47° Northeast 160 184 7,000  Level Toronto Center
03:03AM 44.6333 -76.5167 65° Northeast 160 184 7,000  Level Toronto Center
03:04AM 44.6667 -76.4667 47° Northeast 160 184 7,000  Level Toronto Center
03:05AM 44.6833 -76.4000 71° East 160 184 7,000  Level Toronto Center
03:06AM 44.7167 -76.3500 47° Northeast 160 184 7,000  Level Toronto Center
03:07AM 44.7333 -76.3000 65° Northeast 160 184 7,000  Level Toronto Center
03:08AM 44.7667 -76.2500 47° Northeast 160 184 7,000  Level Toronto Center
03:09AM 44.7833 -76.1833 71° East 160 184 7,000  Level Toronto Center
03:10AM 44.8167 -76.1333 47° Northeast 160 184 7,000  Level Toronto Center
03:11AM 44.8333 -76.0833 65° Northeast 160 184 7,000  Level Toronto Center
03:12AM 44.8500 -76.0333 65° Northeast 160 184 7,000  Level Toronto Center
03:13AM 44.8667 -75.9667 71° East 160 184 7,000  Level Toronto Center
03:14AM 44.8833 -75.9167 65° Northeast 160 184 7,000  Level Toronto Center
03:15AM 44.9167 -75.8667 47° Northeast 160 184 7,000  Level Toronto Center
03:16AM 44.9333 -75.8167 65° Northeast 160 184 7,000  Level Toronto Center
03:17AM 44.9667 -75.7667 47° Northeast 160 184 7,000  Level Toronto Center
03:18AM 44.9833 -75.7000 71° East 160 184 7,000  Level Toronto Center
03:19AM 45.0167 -75.6500 47° Northeast 160 184 7,000  Level Toronto Center
03:20AM 45.0333 -75.6000 65° Northeast 160 184 7,000  Level Toronto Center
03:21AM 45.0333 -75.5500 90° East 160 184 7,000  Level Toronto Center
03:22AM 45.0667 -75.4833 55° Northeast 160 184 7,000  Level Toronto Center
03:23AM 45.1000 -75.4333 47° Northeast 160 184 7,000  Level Toronto Center
03:24AM 45.1167 -75.3833 65° Northeast 160 184 7,000  Level Toronto Center
03:25AM 45.1333 -75.3333 65° Northeast 160 184 7,000  Level Toronto Center
03:26AM 45.1667 -75.2500 60° Northeast 160 184 7,000  Level Toronto Center
03:27AM 45.1833 -75.2000 65° Northeast 160 184 7,000  Level Toronto Center
03:28AM 45.2167 -75.1500 47° Northeast 170 196 7,000  Level Toronto Center
03:29AM 45.2167 -75.0833 90° East 170 196 7,000  Level Toronto Center
03:30AM 45.2500 -75.0333 47° Northeast 170 196 7,000  Level Toronto Center
03:31AM 45.2667 -74.9833 65° Northeast 170 196 7,000  Level Toronto Center
03:32AM 45.3000 -74.9167 55° Northeast 170 196 7,000  Level Toronto Center
03:33AM 45.3167 -74.8667 65° Northeast 170 196 7,000  Level Toronto Center
03:34AM 45.3500 -74.8167 47° Northeast 170 196 7,000 -60 Level Toronto Center
03:35AM 45.3833 -74.7333 60° Northeast 170 196 6,900 -300 Descending Toronto Center
03:36AM 45.3833 -74.7000 90° East 180 207 6,500 -480 Descending Toronto Center
03:37AM 45.4167 -74.6167 60° Northeast 190 219 6,000 -480 Descending Toronto Center
03:38AM 45.4500 -74.5667 46° Northeast 190 219 5,500 -540 Descending Montreal Center
03:39AM 45.4833 -74.5167 46° Northeast 190 219 4,900 -600 Descending Montreal Center
03:40AM 45.5000 -74.4333 74° East 190 219 4,400 -600 Descending Montreal Center
03:41AM 45.5333 -74.3667 54° Northeast 190 219 3,800 -600 Descending Montreal Center
03:42AM 45.5667 -74.3167 46° Northeast 190 219 3,300 -540 Descending Montreal Center
03:43AM 45.5833 -74.2500 70° East 180 207 2,800 -540 Descending Montreal Center
03:44AM 45.6167 -74.2000 46° Northeast 180 207 2,300 -480 Descending Montreal Center
03:45AM 45.6333 -74.1167 74° East 180 207 1,900 -540 Descending Montreal Center
03:46AM 45.6500 -74.0500 70° East 180 207 1,300 -780 Descending Montreal Center
03:47AM 45.6500 -74.0000 90° East 110 127 400 -900 Descending Montreal Center